sensor_id;sensor_type;location;lat;lon;timestamp;temperature;humidity
27779;DHT22;30234;48.090;11.464;2022-11-15T00:02:58;1.50;99.90
27779;DHT22;30234;48.090;11.464;2022-11-15T00:06:58;1.40;99.90
27779;DHT22;30234;48.090;11.464;2022-11-15T00:11:01;1.40;99.90
27779;DHT22;30234;48.090;11.464;2022-11-15T00:15:03;1.40;99.90
27779;DHT22;30234;48.090;11.464;2022-11-15T00:19:04;1.50;99.90
27779;DHT22;30234;48.090;11.464;2022-11-15T00:23:06;1.60;99.90
27779;DHT22;30234;48.090;11.464;2022-11-15T00:27:07;1.50;99.90
27779;DHT22;30234;48.090;11.464;2022-11-15T00:31:11;1.50;99.90
27779;DHT22;30234;48.090;11.464;2022-11-15T00:35:13;1.50;99.90
27779;DHT22;30234;48.090;11.464;2022-11-15T00:39:13;1.40;99.90
27779;DHT22;30234;48.090;11.464;2022-11-15T00:43:14;1.30;99.90
27779;DHT22;30234;48.090;11.464;2022-11-15T00:47:15;1.30;99.90
27779;DHT22;30234;48.090;11.464;2022-11-15T00:51:16;1.30;99.90
27779;DHT22;30234;48.090;11.464;2022-11-15T00:55:18;1.20;99.90
27779;DHT22;30234;48.090;11.464;2022-11-15T00:59:19;1.20;99.90
27779;DHT22;30234;48.090;11.464;2022-11-15T01:03:20;1.10;99.90
27779;DHT22;30234;48.090;11.464;2022-11-15T01:07:20;1.00;99.90
27779;DHT22;30234;48.090;11.464;2022-11-15T01:11:21;1.00;99.90
27779;DHT22;30234;48.090;11.464;2022-11-15T01:15:22;1.10;99.90
27779;DHT22;30234;48.090;11.464;2022-11-15T01:19:23;1.00;99.90
27779;DHT22;30234;48.090;11.464;2022-11-15T01:23:23;1.00;99.90
27779;DHT22;30234;48.090;11.464;2022-11-15T01:27:24;0.90;99.90
27779;DHT22;30234;48.090;11.464;2022-11-15T01:31:25;1.10;99.90
27779;DHT22;30234;48.090;11.464;2022-11-15T01:35:26;1.20;99.90
27779;DHT22;30234;48.090;11.464;2022-11-15T01:39:26;1.10;99.90
27779;DHT22;30234;48.090;11.464;2022-11-15T01:43:29;1.00;99.90
27779;DHT22;30234;48.090;11.464;2022-11-15T01:47:36;1.00;99.90
27779;DHT22;30234;48.090;11.464;2022-11-15T01:51:39;1.00;99.90
27779;DHT22;30234;48.090;11.464;2022-11-15T01:55:40;1.00;99.90
27779;DHT22;30234;48.090;11.464;2022-11-15T01:59:43;0.80;99.90
27779;DHT22;30234;48.090;11.464;2022-11-15T02:07:52;0.70;99.90
27779;DHT22;30234;48.090;11.464;2022-11-15T02:11:54;0.70;99.90
27779;DHT22;30234;48.090;11.464;2022-11-15T02:21:06;0.60;99.90
27779;DHT22;30234;48.090;11.464;2022-11-15T02:25:57;0.60;99.90
27779;DHT22;30234;48.090;11.464;2022-11-15T02:39:08;0.40;99.90
27779;DHT22;30234;48.090;11.464;2022-11-15T02:43:32;0.40;99.90
27779;DHT22;30234;48.090;11.464;2022-11-15T02:47:59;0.40;99.90
27779;DHT22;30234;48.090;11.464;2022-11-15T02:52:01;0.40;99.90
27779;DHT22;30234;48.090;11.464;2022-11-15T02:56:02;0.40;99.90
27779;DHT22;30234;48.090;11.464;2022-11-15T03:00:10;0.40;99.90
27779;DHT22;30234;48.090;11.464;2022-11-15T03:04:22;0.40;99.90
27779;DHT22;30234;48.090;11.464;2022-11-15T03:08:48;0.40;99.90
27779;DHT22;30234;48.090;11.464;2022-11-15T03:12:56;0.30;99.90
27779;DHT22;30234;48.090;11.464;2022-11-15T03:17:23;0.40;99.90
27779;DHT22;30234;48.090;11.464;2022-11-15T03:21:28;0.40;99.90
27779;DHT22;30234;48.090;11.464;2022-11-15T03:25:32;0.40;99.90
27779;DHT22;30234;48.090;11.464;2022-11-15T03:29:39;0.30;99.90
27779;DHT22;30234;48.090;11.464;2022-11-15T03:33:43;0.30;99.90
27779;DHT22;30234;48.090;11.464;2022-11-15T03:42:22;0.10;99.90
27779;DHT22;30234;48.090;11.464;2022-11-15T03:46:42;0.00;99.90
27779;DHT22;30234;48.090;11.464;2022-11-15T03:50:48;-0.10;99.90
27779;DHT22;30234;48.090;11.464;2022-11-15T03:54:52;-0.10;99.90
27779;DHT22;30234;48.090;11.464;2022-11-15T03:58:55;-0.10;99.90
27779;DHT22;30234;48.090;11.464;2022-11-15T04:02:55;-0.10;99.90
27779;DHT22;30234;48.090;11.464;2022-11-15T04:06:56;0.00;99.90
27779;DHT22;30234;48.090;11.464;2022-11-15T04:10:57;0.10;99.90
27779;DHT22;30234;48.090;11.464;2022-11-15T04:14:59;0.10;99.90
27779;DHT22;30234;48.090;11.464;2022-11-15T04:19:10;0.10;99.90
27779;DHT22;30234;48.090;11.464;2022-11-15T04:23:29;0.20;99.90
27779;DHT22;30234;48.090;11.464;2022-11-15T04:27:48;0.10;99.90
27779;DHT22;30234;48.090;11.464;2022-11-15T04:31:48;0.00;99.90
27779;DHT22;30234;48.090;11.464;2022-11-15T04:35:49;-0.10;99.90
27779;DHT22;30234;48.090;11.464;2022-11-15T04:40:09;-0.20;99.90
27779;DHT22;30234;48.090;11.464;2022-11-15T04:44:10;-0.20;99.90
27779;DHT22;30234;48.090;11.464;2022-11-15T04:48:10;-0.30;99.90
27779;DHT22;30234;48.090;11.464;2022-11-15T04:52:11;-0.30;99.90
27779;DHT22;30234;48.090;11.464;2022-11-15T04:56:12;-0.20;99.90
27779;DHT22;30234;48.090;11.464;2022-11-15T05:00:15;-0.20;99.90
27779;DHT22;30234;48.090;11.464;2022-11-15T05:04:16;-0.20;99.90
27779;DHT22;30234;48.090;11.464;2022-11-15T05:08:20;-0.30;99.90
27779;DHT22;30234;48.090;11.464;2022-11-15T05:12:20;-0.30;99.90
27779;DHT22;30234;48.090;11.464;2022-11-15T05:16:21;-0.40;99.90
27779;DHT22;30234;48.090;11.464;2022-11-15T05:20:22;-0.40;99.90
27779;DHT22;30234;48.090;11.464;2022-11-15T05:24:23;-0.50;99.90
27779;DHT22;30234;48.090;11.464;2022-11-15T05:28:23;-0.40;99.90
27779;DHT22;30234;48.090;11.464;2022-11-15T05:32:24;-0.40;99.90
27779;DHT22;30234;48.090;11.464;2022-11-15T05:36:33;-0.50;99.90
27779;DHT22;30234;48.090;11.464;2022-11-15T05:40:37;-0.60;99.90
27779;DHT22;30234;48.090;11.464;2022-11-15T05:44:40;-0.50;99.90
27779;DHT22;30234;48.090;11.464;2022-11-15T05:48:46;-0.50;99.90
27779;DHT22;30234;48.090;11.464;2022-11-15T05:52:50;-0.60;99.90
27779;DHT22;30234;48.090;11.464;2022-11-15T05:56:51;-0.60;99.90
27779;DHT22;30234;48.090;11.464;2022-11-15T06:00:54;-0.50;99.90
27779;DHT22;30234;48.090;11.464;2022-11-15T06:04:54;-0.40;99.90
27779;DHT22;30234;48.090;11.464;2022-11-15T06:08:55;-0.50;99.90
27779;DHT22;30234;48.090;11.464;2022-11-15T06:13:05;-0.60;99.90
27779;DHT22;30234;48.090;11.464;2022-11-15T06:17:06;-0.70;99.90
27779;DHT22;30234;48.090;11.464;2022-11-15T06:21:07;-0.70;99.90
27779;DHT22;30234;48.090;11.464;2022-11-15T06:25:08;-0.70;99.90
27779;DHT22;30234;48.090;11.464;2022-11-15T06:29:08;-0.60;99.90
27779;DHT22;30234;48.090;11.464;2022-11-15T06:33:09;-0.60;99.90
27779;DHT22;30234;48.090;11.464;2022-11-15T06:37:10;-0.50;99.90
27779;DHT22;30234;48.090;11.464;2022-11-15T06:41:12;-0.50;99.90
27779;DHT22;30234;48.090;11.464;2022-11-15T06:45:13;-0.40;99.90
27779;DHT22;30234;48.090;11.464;2022-11-15T06:49:14;-0.30;99.90
27779;DHT22;30234;48.090;11.464;2022-11-15T06:53:15;-0.10;99.90
27779;DHT22;30234;48.090;11.464;2022-11-15T06:57:15;0.00;99.90
27779;DHT22;30234;48.090;11.464;2022-11-15T07:01:16;1.80;99.90
27779;DHT22;30234;48.090;11.464;2022-11-15T07:05:17;4.10;99.90
27779;DHT22;30234;48.090;11.464;2022-11-15T07:09:17;5.10;99.90
27779;DHT22;30234;48.090;11.464;2022-11-15T07:13:18;6.40;99.90
27779;DHT22;30234;48.090;11.464;2022-11-15T07:17:19;7.20;99.90
27779;DHT22;30234;48.090;11.464;2022-11-15T07:21:20;8.80;99.90
27779;DHT22;30234;48.090;11.464;2022-11-15T07:25:20;8.30;99.90
27779;DHT22;30234;48.090;11.464;2022-11-15T07:29:21;8.70;99.90
27779;DHT22;30234;48.090;11.464;2022-11-15T07:33:22;10.00;99.90
27779;DHT22;30234;48.090;11.464;2022-11-15T07:37:23;10.70;99.90
27779;DHT22;30234;48.090;11.464;2022-11-15T07:41:23;12.50;99.90
27779;DHT22;30234;48.090;11.464;2022-11-15T07:45:25;14.40;99.90
27779;DHT22;30234;48.090;11.464;2022-11-15T07:49:28;15.50;99.90
27779;DHT22;30234;48.090;11.464;2022-11-15T07:53:29;15.30;99.90
27779;DHT22;30234;48.090;11.464;2022-11-15T07:57:30;15.00;99.90
27779;DHT22;30234;48.090;11.464;2022-11-15T08:01:30;15.60;99.90
27779;DHT22;30234;48.090;11.464;2022-11-15T08:05:31;16.60;99.90
27779;DHT22;30234;48.090;11.464;2022-11-15T08:09:32;18.70;99.90
27779;DHT22;30234;48.090;11.464;2022-11-15T08:13:33;20.20;99.90
27779;DHT22;30234;48.090;11.464;2022-11-15T08:17:34;22.10;99.90
27779;DHT22;30234;48.090;11.464;2022-11-15T08:21:35;23.30;93.10
27779;DHT22;30234;48.090;11.464;2022-11-15T08:25:36;23.60;80.50
27779;DHT22;30234;48.090;11.464;2022-11-15T08:29:37;21.90;64.80
27779;DHT22;30234;48.090;11.464;2022-11-15T08:33:37;18.10;73.30
27779;DHT22;30234;48.090;11.464;2022-11-15T08:37:38;17.70;81.00
27779;DHT22;30234;48.090;11.464;2022-11-15T08:41:39;19.80;78.00
27779;DHT22;30234;48.090;11.464;2022-11-15T08:45:40;22.10;72.30
27779;DHT22;30234;48.090;11.464;2022-11-15T08:49:40;23.20;64.90
27779;DHT22;30234;48.090;11.464;2022-11-15T08:53:42;23.90;59.90
27779;DHT22;30234;48.090;11.464;2022-11-15T08:57:42;23.50;56.60
27779;DHT22;30234;48.090;11.464;2022-11-15T09:01:43;24.00;56.50
27779;DHT22;30234;48.090;11.464;2022-11-15T09:05:44;24.40;54.40
27779;DHT22;30234;48.090;11.464;2022-11-15T09:09:44;23.80;54.20
27779;DHT22;30234;48.090;11.464;2022-11-15T09:13:45;23.80;54.40
27779;DHT22;30234;48.090;11.464;2022-11-15T09:17:46;24.10;53.00
27779;DHT22;30234;48.090;11.464;2022-11-15T09:21:47;23.80;51.30
27779;DHT22;30234;48.090;11.464;2022-11-15T09:25:48;22.40;52.50
27779;DHT22;30234;48.090;11.464;2022-11-15T09:29:48;21.60;54.30
27779;DHT22;30234;48.090;11.464;2022-11-15T09:33:49;21.60;54.00
27779;DHT22;30234;48.090;11.464;2022-11-15T09:37:50;20.70;55.30
27779;DHT22;30234;48.090;11.464;2022-11-15T09:50:49;20.40;54.20
27779;DHT22;30234;48.090;11.464;2022-11-15T09:54:52;19.70;56.40
27779;DHT22;30234;48.090;11.464;2022-11-15T10:03:36;19.10;58.40
27779;DHT22;30234;48.090;11.464;2022-11-15T10:08:06;20.30;56.00
27779;DHT22;30234;48.090;11.464;2022-11-15T10:12:20;20.30;54.80
27779;DHT22;30234;48.090;11.464;2022-11-15T10:21:13;19.90;56.50
27779;DHT22;30234;48.090;11.464;2022-11-15T10:25:43;20.30;55.60
27779;DHT22;30234;48.090;11.464;2022-11-15T10:29:46;20.40;53.90
27779;DHT22;30234;48.090;11.464;2022-11-15T10:33:49;20.60;53.90
27779;DHT22;30234;48.090;11.464;2022-11-15T10:37:50;20.40;55.20
27779;DHT22;30234;48.090;11.464;2022-11-15T10:41:51;20.30;55.70
27779;DHT22;30234;48.090;11.464;2022-11-15T10:45:52;20.70;54.90
27779;DHT22;30234;48.090;11.464;2022-11-15T10:49:59;21.00;53.30
27779;DHT22;30234;48.090;11.464;2022-11-15T10:54:50;20.30;54.30
27779;DHT22;30234;48.090;11.464;2022-11-15T10:58:57;20.50;53.60
27779;DHT22;30234;48.090;11.464;2022-11-15T11:03:03;21.00;53.70
27779;DHT22;30234;48.090;11.464;2022-11-15T11:07:20;21.30;52.20
27779;DHT22;30234;48.090;11.464;2022-11-15T11:11:23;20.70;52.60
27779;DHT22;30234;48.090;11.464;2022-11-15T11:15:27;20.50;53.30
27779;DHT22;30234;48.090;11.464;2022-11-15T11:24:36;19.90;55.00
27779;DHT22;30234;48.090;11.464;2022-11-15T11:29:09;19.70;56.10
27779;DHT22;30234;48.090;11.464;2022-11-15T11:33:27;19.70;57.10
27779;DHT22;30234;48.090;11.464;2022-11-15T11:37:52;19.80;55.70
27779;DHT22;30234;48.090;11.464;2022-11-15T11:42:16;19.60;56.70
27779;DHT22;30234;48.090;11.464;2022-11-15T11:46:48;19.60;56.60
27779;DHT22;30234;48.090;11.464;2022-11-15T11:51:04;19.20;57.00
27779;DHT22;30234;48.090;11.464;2022-11-15T11:55:23;18.70;57.60
27779;DHT22;30234;48.090;11.464;2022-11-15T11:59:48;18.00;59.30
27779;DHT22;30234;48.090;11.464;2022-11-15T12:04:19;18.10;59.50
27779;DHT22;30234;48.090;11.464;2022-11-15T12:08:45;18.70;58.70
27779;DHT22;30234;48.090;11.464;2022-11-15T12:13:00;18.80;58.20
27779;DHT22;30234;48.090;11.464;2022-11-15T12:17:03;18.30;57.60
27779;DHT22;30234;48.090;11.464;2022-11-15T12:25:50;18.10;57.30
27779;DHT22;30234;48.090;11.464;2022-11-15T12:30:00;18.20;58.10
27779;DHT22;30234;48.090;11.464;2022-11-15T12:38:57;18.60;57.70
27779;DHT22;30234;48.090;11.464;2022-11-15T12:43:42;18.40;57.20
27779;DHT22;30234;48.090;11.464;2022-11-15T12:47:32;18.50;56.20
27779;DHT22;30234;48.090;11.464;2022-11-15T12:55:43;17.90;57.80
27779;DHT22;30234;48.090;11.464;2022-11-15T13:08:52;18.10;57.30
27779;DHT22;30234;48.090;11.464;2022-11-15T13:21:24;17.90;58.40
27779;DHT22;30234;48.090;11.464;2022-11-15T13:26:14;17.90;59.60
27779;DHT22;30234;48.090;11.464;2022-11-15T13:30:25;18.10;59.30
27779;DHT22;30234;48.090;11.464;2022-11-15T13:34:31;18.50;58.40
27779;DHT22;30234;48.090;11.464;2022-11-15T13:38:36;18.70;58.50
27779;DHT22;30234;48.090;11.464;2022-11-15T13:42:38;18.80;58.10
27779;DHT22;30234;48.090;11.464;2022-11-15T13:46:39;18.40;59.20
27779;DHT22;30234;48.090;11.464;2022-11-15T13:50:40;18.80;58.70
27779;DHT22;30234;48.090;11.464;2022-11-15T13:54:44;19.90;57.00
27779;DHT22;30234;48.090;11.464;2022-11-15T13:58:47;20.40;56.50
27779;DHT22;30234;48.090;11.464;2022-11-15T14:02:48;20.10;55.70
27779;DHT22;30234;48.090;11.464;2022-11-15T14:06:51;19.20;57.70
27779;DHT22;30234;48.090;11.464;2022-11-15T14:11:15;18.90;58.60
27779;DHT22;30234;48.090;11.464;2022-11-15T14:15:32;19.60;57.20
27779;DHT22;30234;48.090;11.464;2022-11-15T14:19:36;20.00;56.80
27779;DHT22;30234;48.090;11.464;2022-11-15T14:23:38;19.90;57.60
27779;DHT22;30234;48.090;11.464;2022-11-15T14:27:41;20.20;56.20
27779;DHT22;30234;48.090;11.464;2022-11-15T14:31:43;20.00;56.50
27779;DHT22;30234;48.090;11.464;2022-11-15T14:35:46;19.70;57.00
27779;DHT22;30234;48.090;11.464;2022-11-15T14:39:48;18.60;59.00
27779;DHT22;30234;48.090;11.464;2022-11-15T14:43:50;17.10;62.30
27779;DHT22;30234;48.090;11.464;2022-11-15T14:47:51;15.80;65.90
27779;DHT22;30234;48.090;11.464;2022-11-15T14:51:52;14.50;69.50
27779;DHT22;30234;48.090;11.464;2022-11-15T14:55:52;13.70;73.00
27779;DHT22;30234;48.090;11.464;2022-11-15T14:59:53;13.00;76.60
27779;DHT22;30234;48.090;11.464;2022-11-15T15:03:54;12.40;79.90
27779;DHT22;30234;48.090;11.464;2022-11-15T15:07:58;11.80;83.80
27779;DHT22;30234;48.090;11.464;2022-11-15T15:11:59;11.40;88.90
27779;DHT22;30234;48.090;11.464;2022-11-15T15:16:00;11.10;91.90
27779;DHT22;30234;48.090;11.464;2022-11-15T15:20:00;10.90;96.40
27779;DHT22;30234;48.090;11.464;2022-11-15T15:24:01;10.50;99.90
27779;DHT22;30234;48.090;11.464;2022-11-15T15:28:02;10.20;99.90
27779;DHT22;30234;48.090;11.464;2022-11-15T15:32:03;9.80;99.90
27779;DHT22;30234;48.090;11.464;2022-11-15T15:36:05;9.60;99.90
27779;DHT22;30234;48.090;11.464;2022-11-15T15:40:15;9.40;99.90
27779;DHT22;30234;48.090;11.464;2022-11-15T15:44:17;9.10;99.90
27779;DHT22;30234;48.090;11.464;2022-11-15T15:48:18;8.70;99.90
27779;DHT22;30234;48.090;11.464;2022-11-15T15:52:19;8.50;99.90
27779;DHT22;30234;48.090;11.464;2022-11-15T15:56:19;8.20;99.90
27779;DHT22;30234;48.090;11.464;2022-11-15T16:00:22;8.00;99.90
27779;DHT22;30234;48.090;11.464;2022-11-15T16:04:24;7.90;99.90
27779;DHT22;30234;48.090;11.464;2022-11-15T16:08:26;7.80;99.90
27779;DHT22;30234;48.090;11.464;2022-11-15T16:12:28;7.70;99.90
27779;DHT22;30234;48.090;11.464;2022-11-15T16:16:34;7.80;99.90
27779;DHT22;30234;48.090;11.464;2022-11-15T16:20:45;7.70;99.90
27779;DHT22;30234;48.090;11.464;2022-11-15T16:24:47;7.70;99.90
27779;DHT22;30234;48.090;11.464;2022-11-15T16:28:48;7.60;99.90
27779;DHT22;30234;48.090;11.464;2022-11-15T16:32:49;7.50;99.90
27779;DHT22;30234;48.090;11.464;2022-11-15T16:36:50;7.40;99.90
27779;DHT22;30234;48.090;11.464;2022-11-15T16:40:51;7.30;99.90
27779;DHT22;30234;48.090;11.464;2022-11-15T16:44:52;7.20;99.90
27779;DHT22;30234;48.090;11.464;2022-11-15T16:48:53;7.10;99.90
27779;DHT22;30234;48.090;11.464;2022-11-15T16:52:56;6.90;99.90
27779;DHT22;30234;48.090;11.464;2022-11-15T16:56:58;6.70;99.90
27779;DHT22;30234;48.090;11.464;2022-11-15T17:00:59;6.60;99.90
27779;DHT22;30234;48.090;11.464;2022-11-15T17:04:59;6.40;99.90
27779;DHT22;30234;48.090;11.464;2022-11-15T17:09:00;6.40;99.90
27779;DHT22;30234;48.090;11.464;2022-11-15T17:13:01;6.10;99.90
27779;DHT22;30234;48.090;11.464;2022-11-15T17:17:01;6.10;99.90
27779;DHT22;30234;48.090;11.464;2022-11-15T17:21:14;6.20;99.90
27779;DHT22;30234;48.090;11.464;2022-11-15T17:25:19;6.10;99.90
27779;DHT22;30234;48.090;11.464;2022-11-15T17:29:19;6.10;99.90
27779;DHT22;30234;48.090;11.464;2022-11-15T17:33:20;5.90;99.90
27779;DHT22;30234;48.090;11.464;2022-11-15T17:37:21;5.90;99.90
27779;DHT22;30234;48.090;11.464;2022-11-15T17:41:22;5.90;99.90
27779;DHT22;30234;48.090;11.464;2022-11-15T17:45:22;5.80;99.90
27779;DHT22;30234;48.090;11.464;2022-11-15T17:49:23;5.80;99.90
27779;DHT22;30234;48.090;11.464;2022-11-15T17:53:25;5.90;99.90
27779;DHT22;30234;48.090;11.464;2022-11-15T17:57:26;5.90;99.90
27779;DHT22;30234;48.090;11.464;2022-11-15T18:01:32;5.80;99.90
27779;DHT22;30234;48.090;11.464;2022-11-15T18:05:34;5.60;99.90
27779;DHT22;30234;48.090;11.464;2022-11-15T18:09:34;5.30;99.90
27779;DHT22;30234;48.090;11.464;2022-11-15T18:13:36;5.20;99.90
27779;DHT22;30234;48.090;11.464;2022-11-15T18:17:38;5.00;99.90
27779;DHT22;30234;48.090;11.464;2022-11-15T18:21:40;5.00;99.90
27779;DHT22;30234;48.090;11.464;2022-11-15T18:25:57;5.00;99.90
27779;DHT22;30234;48.090;11.464;2022-11-15T18:29:58;5.10;99.90
27779;DHT22;30234;48.090;11.464;2022-11-15T18:33:59;5.20;99.90
27779;DHT22;30234;48.090;11.464;2022-11-15T18:38:00;5.20;99.90
27779;DHT22;30234;48.090;11.464;2022-11-15T18:42:01;5.40;99.90
27779;DHT22;30234;48.090;11.464;2022-11-15T18:46:07;5.50;99.90
27779;DHT22;30234;48.090;11.464;2022-11-15T18:50:11;5.70;99.90
27779;DHT22;30234;48.090;11.464;2022-11-15T18:54:15;5.80;99.90
27779;DHT22;30234;48.090;11.464;2022-11-15T18:58:16;5.90;99.90
27779;DHT22;30234;48.090;11.464;2022-11-15T19:02:17;6.00;99.90
27779;DHT22;30234;48.090;11.464;2022-11-15T19:06:25;6.00;99.90
27779;DHT22;30234;48.090;11.464;2022-11-15T19:10:28;6.00;99.90
27779;DHT22;30234;48.090;11.464;2022-11-15T19:14:28;5.90;99.90
27779;DHT22;30234;48.090;11.464;2022-11-15T19:18:30;5.90;99.90
27779;DHT22;30234;48.090;11.464;2022-11-15T19:22:32;6.00;99.90
27779;DHT22;30234;48.090;11.464;2022-11-15T19:26:33;5.90;99.90
27779;DHT22;30234;48.090;11.464;2022-11-15T19:30:37;5.80;99.90
27779;DHT22;30234;48.090;11.464;2022-11-15T19:34:37;5.80;99.90
27779;DHT22;30234;48.090;11.464;2022-11-15T19:38:41;5.80;99.90
27779;DHT22;30234;48.090;11.464;2022-11-15T19:42:42;5.90;99.90
27779;DHT22;30234;48.090;11.464;2022-11-15T19:46:42;5.90;99.90
27779;DHT22;30234;48.090;11.464;2022-11-15T19:50:43;5.90;99.90
27779;DHT22;30234;48.090;11.464;2022-11-15T19:54:44;6.00;99.90
27779;DHT22;30234;48.090;11.464;2022-11-15T19:58:45;6.00;99.90
27779;DHT22;30234;48.090;11.464;2022-11-15T20:02:48;6.00;99.90
27779;DHT22;30234;48.090;11.464;2022-11-15T20:06:49;5.90;99.90
27779;DHT22;30234;48.090;11.464;2022-11-15T20:10:50;5.90;99.90
27779;DHT22;30234;48.090;11.464;2022-11-15T20:14:51;5.90;99.90
27779;DHT22;30234;48.090;11.464;2022-11-15T20:18:51;5.90;99.90
27779;DHT22;30234;48.090;11.464;2022-11-15T20:22:53;6.00;99.90
27779;DHT22;30234;48.090;11.464;2022-11-15T20:26:53;6.00;99.90
27779;DHT22;30234;48.090;11.464;2022-11-15T20:30:57;6.00;99.90
27779;DHT22;30234;48.090;11.464;2022-11-15T20:34:58;6.00;99.90
27779;DHT22;30234;48.090;11.464;2022-11-15T20:38:59;6.00;99.90
27779;DHT22;30234;48.090;11.464;2022-11-15T20:43:00;6.20;99.90
27779;DHT22;30234;48.090;11.464;2022-11-15T20:47:01;6.30;99.90
27779;DHT22;30234;48.090;11.464;2022-11-15T20:51:08;6.20;99.90
27779;DHT22;30234;48.090;11.464;2022-11-15T20:55:11;6.20;99.90
27779;DHT22;30234;48.090;11.464;2022-11-15T20:59:12;6.10;99.90
27779;DHT22;30234;48.090;11.464;2022-11-15T21:03:13;6.10;99.90
27779;DHT22;30234;48.090;11.464;2022-11-15T21:07:14;6.00;99.90
27779;DHT22;30234;48.090;11.464;2022-11-15T21:11:15;6.00;99.90
27779;DHT22;30234;48.090;11.464;2022-11-15T21:15:33;6.10;99.90
27779;DHT22;30234;48.090;11.464;2022-11-15T21:19:34;6.10;99.90
27779;DHT22;30234;48.090;11.464;2022-11-15T21:23:35;6.00;99.90
27779;DHT22;30234;48.090;11.464;2022-11-15T21:27:36;6.00;99.90
27779;DHT22;30234;48.090;11.464;2022-11-15T21:31:37;6.00;99.90
27779;DHT22;30234;48.090;11.464;2022-11-15T21:35:37;6.00;99.90
27779;DHT22;30234;48.090;11.464;2022-11-15T21:39:38;5.90;99.90
27779;DHT22;30234;48.090;11.464;2022-11-15T21:43:39;6.00;99.90
27779;DHT22;30234;48.090;11.464;2022-11-15T21:47:40;5.80;99.90
27779;DHT22;30234;48.090;11.464;2022-11-15T21:51:41;5.80;99.90
27779;DHT22;30234;48.090;11.464;2022-11-15T21:55:42;5.70;99.90
27779;DHT22;30234;48.090;11.464;2022-11-15T21:59:43;5.70;99.90
27779;DHT22;30234;48.090;11.464;2022-11-15T22:04:02;5.60;99.90
27779;DHT22;30234;48.090;11.464;2022-11-15T22:08:03;5.50;99.90
27779;DHT22;30234;48.090;11.464;2022-11-15T22:12:04;5.30;99.90
27779;DHT22;30234;48.090;11.464;2022-11-15T22:16:05;5.20;99.90
27779;DHT22;30234;48.090;11.464;2022-11-15T22:20:07;5.00;99.90
27779;DHT22;30234;48.090;11.464;2022-11-15T22:24:08;5.00;99.90
27779;DHT22;30234;48.090;11.464;2022-11-15T22:28:08;5.20;99.90
27779;DHT22;30234;48.090;11.464;2022-11-15T22:32:09;5.20;99.90
27779;DHT22;30234;48.090;11.464;2022-11-15T22:36:11;5.30;99.90
27779;DHT22;30234;48.090;11.464;2022-11-15T22:40:12;5.40;99.90
27779;DHT22;30234;48.090;11.464;2022-11-15T22:44:12;5.30;99.90
27779;DHT22;30234;48.090;11.464;2022-11-15T22:48:13;5.30;99.90
27779;DHT22;30234;48.090;11.464;2022-11-15T22:52:15;5.30;99.90
27779;DHT22;30234;48.090;11.464;2022-11-15T22:56:15;5.20;99.90
27779;DHT22;30234;48.090;11.464;2022-11-15T23:00:16;5.00;99.90
27779;DHT22;30234;48.090;11.464;2022-11-15T23:04:17;4.80;99.90
27779;DHT22;30234;48.090;11.464;2022-11-15T23:08:18;4.70;99.90
27779;DHT22;30234;48.090;11.464;2022-11-15T23:12:20;4.60;99.90
27779;DHT22;30234;48.090;11.464;2022-11-15T23:16:40;4.50;99.90
27779;DHT22;30234;48.090;11.464;2022-11-15T23:20:40;4.50;99.90
27779;DHT22;30234;48.090;11.464;2022-11-15T23:24:41;4.50;99.90
27779;DHT22;30234;48.090;11.464;2022-11-15T23:28:42;4.70;99.90
27779;DHT22;30234;48.090;11.464;2022-11-15T23:32:42;4.80;99.90
27779;DHT22;30234;48.090;11.464;2022-11-15T23:37:02;4.80;99.90
27779;DHT22;30234;48.090;11.464;2022-11-15T23:41:04;4.70;99.90
27779;DHT22;30234;48.090;11.464;2022-11-15T23:45:05;4.60;99.90
27779;DHT22;30234;48.090;11.464;2022-11-15T23:49:06;4.60;99.90
27779;DHT22;30234;48.090;11.464;2022-11-15T23:53:07;4.60;99.90
27779;DHT22;30234;48.090;11.464;2022-11-15T23:57:08;4.50;99.90
